createdAt,value
2023-01-18T00:01:57.857Z,4.20
2023-01-18T00:04:46.858Z,4.20
2023-01-18T00:07:35.631Z,4.10
2023-01-18T00:10:25.023Z,4.20
2023-01-18T00:13:14.167Z,4.30
2023-01-18T00:16:04.616Z,4.30
2023-01-18T00:18:57.041Z,4.40
2023-01-18T00:21:45.706Z,4.40
2023-01-18T00:24:34.442Z,4.20
2023-01-18T00:27:23.082Z,4.40
2023-01-18T00:30:13.369Z,4.40
2023-01-18T00:33:02.187Z,4.40
2023-01-18T00:35:59.574Z,4.40
2023-01-18T00:38:52.313Z,4.40
2023-01-18T00:42:01.169Z,4.60
2023-01-18T00:44:48.833Z,4.40
2023-01-18T00:47:37.590Z,4.20
2023-01-18T00:50:26.641Z,4.30
2023-01-18T00:53:16.767Z,4.20
2023-01-18T00:56:07.048Z,4.00
2023-01-18T00:58:55.892Z,3.80
2023-01-18T01:01:45.673Z,3.90
2023-01-18T01:04:52.029Z,3.90
2023-01-18T01:07:40.864Z,3.90
2023-01-18T01:10:31.083Z,3.60
2023-01-18T01:13:39.732Z,3.80
2023-01-18T01:16:45.638Z,3.70
2023-01-18T01:19:52.023Z,3.80
2023-01-18T01:22:58.588Z,3.60
2023-01-18T01:26:06.321Z,3.80
2023-01-18T01:28:55.151Z,3.80
2023-01-18T01:31:43.929Z,3.80
2023-01-18T01:34:32.685Z,3.70
2023-01-18T01:37:21.567Z,3.70
2023-01-18T01:40:11.830Z,3.70
2023-01-18T01:43:02.240Z,3.80
2023-01-18T01:45:51.328Z,3.90
2023-01-18T01:48:40.130Z,3.90
2023-01-18T01:51:29.357Z,3.90
2023-01-18T01:54:22.993Z,3.80
2023-01-18T01:57:17.014Z,3.90
2023-01-18T02:00:10.602Z,4.00
2023-01-18T02:03:06.392Z,3.80
2023-01-18T02:06:01.639Z,4.00
2023-01-18T02:08:50.500Z,4.00
2023-01-18T02:11:39.960Z,4.10
2023-01-18T02:14:29.020Z,4.10
2023-01-18T02:17:35.598Z,4.00
2023-01-18T02:20:51.913Z,3.80
2023-01-18T02:24:29.260Z,3.70
2023-01-18T02:27:23.653Z,3.80
2023-01-18T02:30:31.402Z,3.90
2023-01-18T02:33:28.858Z,4.10
2023-01-18T02:36:24.453Z,4.10
2023-01-18T02:39:23.661Z,3.90
2023-01-18T02:42:36.293Z,3.90
2023-01-18T02:45:49.697Z,3.80
2023-01-18T02:48:41.143Z,4.00
2023-01-18T02:51:29.839Z,4.20
2023-01-18T02:54:24.674Z,4.10
2023-01-18T02:57:16.547Z,4.10
2023-01-18T03:00:09.215Z,4.10
2023-01-18T03:03:00.638Z,3.80
2023-01-18T03:05:50.649Z,4.00
2023-01-18T03:08:44.285Z,4.10
2023-01-18T03:11:41.288Z,4.00
2023-01-18T03:14:42.120Z,3.80
2023-01-18T03:17:37.273Z,3.90
2023-01-18T03:20:31.794Z,3.90
2023-01-18T03:23:42.553Z,3.90
2023-01-18T03:26:32.996Z,4.00
2023-01-18T03:29:41.373Z,4.00
2023-01-18T03:32:47.723Z,4.00
2023-01-18T03:35:39.048Z,4.10
2023-01-18T03:38:29.575Z,4.10
2023-01-18T03:41:19.688Z,4.10
2023-01-18T03:44:14.919Z,4.10
2023-01-18T03:47:05.382Z,4.20
2023-01-18T03:49:54.446Z,4.20
2023-01-18T03:52:48.118Z,4.10
2023-01-18T03:55:42.335Z,4.20
2023-01-18T03:58:36.428Z,4.30
2023-01-18T04:01:25.967Z,4.40
2023-01-18T04:04:15.138Z,4.30
2023-01-18T04:07:04.206Z,4.30
2023-01-18T04:09:54.350Z,4.20
2023-01-18T04:12:43.217Z,4.20
2023-01-18T04:15:32.085Z,4.40
2023-01-18T04:18:20.791Z,4.30
2023-01-18T04:21:09.480Z,4.30
2023-01-18T04:23:58.189Z,4.30
2023-01-18T04:26:48.296Z,4.20
2023-01-18T04:29:37.121Z,4.30
2023-01-18T04:32:26.125Z,4.20
2023-01-18T04:35:15.301Z,4.20
2023-01-18T04:38:04.131Z,4.10
2023-01-18T04:40:52.940Z,4.10
2023-01-18T04:43:43.131Z,4.20
2023-01-18T04:46:32.064Z,4.20
2023-01-18T04:49:21.421Z,4.40
2023-01-18T04:52:10.103Z,4.30
2023-01-18T04:54:58.723Z,4.40
2023-01-18T04:57:47.557Z,4.40
2023-01-18T05:00:39.924Z,4.30
2023-01-18T05:03:28.940Z,4.40
2023-01-18T05:06:20.387Z,4.40
2023-01-18T05:09:11.596Z,4.40
2023-01-18T05:12:00.287Z,4.40
2023-01-18T05:14:49.019Z,4.40
2023-01-18T05:17:39.118Z,4.30
2023-01-18T05:20:27.903Z,4.40
2023-01-18T05:23:16.745Z,4.30
2023-01-18T05:26:13.656Z,4.40
2023-01-18T05:29:02.433Z,4.20
2023-01-18T05:31:51.234Z,4.20
2023-01-18T05:34:41.362Z,4.30
2023-01-18T05:37:30.099Z,4.20
2023-01-18T05:40:19.230Z,4.30
2023-01-18T05:43:07.899Z,4.20
2023-01-18T05:45:57.339Z,4.00
2023-01-18T05:48:49.894Z,4.10
2023-01-18T05:51:40.431Z,4.00
2023-01-18T05:54:29.228Z,4.00
2023-01-18T05:57:18.075Z,4.00
2023-01-18T06:00:09.650Z,3.80
2023-01-18T06:03:01.526Z,3.90
2023-01-18T06:05:51.635Z,3.90
2023-01-18T06:08:41.935Z,3.70
2023-01-18T06:11:30.682Z,3.70
2023-01-18T06:14:19.612Z,3.60
2023-01-18T06:17:09.056Z,3.70
2023-01-18T06:19:58.090Z,3.60
2023-01-18T06:22:48.226Z,3.60
2023-01-18T06:25:38.626Z,3.60
2023-01-18T06:28:30.276Z,3.70
2023-01-18T06:31:19.593Z,3.70
2023-01-18T06:34:10.327Z,3.80
2023-01-18T06:36:59.144Z,3.90
2023-01-18T06:39:48.437Z,3.80
2023-01-18T06:42:38.971Z,3.80
2023-01-18T06:45:29.393Z,3.70
2023-01-18T06:48:18.161Z,3.80
2023-01-18T06:51:07.142Z,3.70
2023-01-18T06:53:55.919Z,3.60
2023-01-18T06:56:45.664Z,3.80
2023-01-18T06:59:36.237Z,3.80
2023-01-18T07:02:25.493Z,3.80
2023-01-18T07:05:14.566Z,3.70
2023-01-18T07:08:03.305Z,3.60
2023-01-18T07:10:53.044Z,3.80
2023-01-18T07:13:43.832Z,3.80
2023-01-18T07:16:34.283Z,3.80
2023-01-18T07:19:23.193Z,3.90
2023-01-18T07:22:11.948Z,3.80
2023-01-18T07:25:00.927Z,3.80
2023-01-18T07:27:50.325Z,3.80
2023-01-18T07:30:39.138Z,3.90
2023-01-18T07:33:29.936Z,3.80
2023-01-18T07:36:19.553Z,3.80
2023-01-18T07:39:08.798Z,3.80
2023-01-18T07:41:57.614Z,3.80
2023-01-18T07:44:46.343Z,3.80
2023-01-18T07:47:37.001Z,3.80
2023-01-18T07:50:27.172Z,3.90
2023-01-18T07:53:15.944Z,3.70
2023-01-18T07:56:06.771Z,3.60
2023-01-18T07:58:55.833Z,3.60
2023-01-18T08:01:44.705Z,3.80
2023-01-18T08:04:33.538Z,3.70
2023-01-18T08:07:23.874Z,3.90
2023-01-18T08:10:15.113Z,3.70
2023-01-18T08:13:04.212Z,3.70
2023-01-18T08:15:53.601Z,3.70
2023-01-18T08:18:42.733Z,3.80
2023-01-18T08:21:35.745Z,3.80
2023-01-18T08:24:26.053Z,3.60
2023-01-18T08:27:14.946Z,3.80
2023-01-18T08:30:03.868Z,3.70
2023-01-18T08:32:52.979Z,3.90
2023-01-18T08:35:43.711Z,3.80
2023-01-18T08:38:33.386Z,3.90
2023-01-18T08:41:28.578Z,3.80
2023-01-18T08:44:18.164Z,3.70
2023-01-18T08:47:07.123Z,3.80
2023-01-18T08:49:55.999Z,3.90
2023-01-18T08:52:44.931Z,3.90
2023-01-18T08:55:35.281Z,3.80
2023-01-18T08:58:25.950Z,3.80
2023-01-18T09:01:14.808Z,3.90
2023-01-18T09:04:03.755Z,4.10
2023-01-18T09:06:52.723Z,4.20
2023-01-18T09:09:42.187Z,4.20
2023-01-18T09:12:31.304Z,4.10
2023-01-18T09:15:21.956Z,4.10
2023-01-18T09:18:11.286Z,4.20
2023-01-18T09:21:01.270Z,4.10
2023-01-18T09:23:51.129Z,4.10
2023-01-18T09:26:41.180Z,4.10
2023-01-18T09:29:31.489Z,4.10
2023-01-18T09:32:21.942Z,4.10
2023-01-18T09:35:11.515Z,4.00
2023-01-18T09:38:00.388Z,3.90
2023-01-18T09:40:49.393Z,3.90
2023-01-18T09:43:44.289Z,3.90
2023-01-18T09:46:36.997Z,3.80
2023-01-18T09:49:34.098Z,4.00
2023-01-18T09:52:31.830Z,4.00
2023-01-18T09:55:27.718Z,4.00
2023-01-18T09:58:37.461Z,4.00
2023-01-18T10:01:29.712Z,4.00
2023-01-18T10:04:22.563Z,4.00
2023-01-18T10:07:17.065Z,3.90
2023-01-18T10:12:01.775Z,4.00
2023-01-18T10:14:54.552Z,4.00
2023-01-18T10:17:45.191Z,4.00
2023-01-18T10:20:40.326Z,3.90
2023-01-18T10:23:33.387Z,4.00
2023-01-18T10:26:30.119Z,4.10
2023-01-18T10:29:35.463Z,4.10
2023-01-18T10:32:27.608Z,4.00
2023-01-18T10:35:19.612Z,4.10
2023-01-18T10:38:13.497Z,4.00
2023-01-18T10:41:03.875Z,3.90
2023-01-18T10:43:52.559Z,4.10
2023-01-18T10:46:42.604Z,4.10
2023-01-18T10:49:36.487Z,3.90
2023-01-18T10:52:28.389Z,3.90
2023-01-18T10:55:19.432Z,4.00
2023-01-18T10:58:15.289Z,4.00
2023-01-18T11:01:05.267Z,4.10
2023-01-18T11:03:58.349Z,4.10
2023-01-18T11:06:47.980Z,4.10
2023-01-18T11:09:55.731Z,4.20
2023-01-18T11:12:48.090Z,4.20
2023-01-18T11:15:36.799Z,4.20
2023-01-18T11:18:25.528Z,4.00
2023-01-18T11:21:16.982Z,4.20
2023-01-18T11:24:09.672Z,4.10
2023-01-18T11:27:01.811Z,4.10
2023-01-18T11:29:51.236Z,4.10
2023-01-18T11:32:41.346Z,4.30
2023-01-18T11:35:34.326Z,4.30
2023-01-18T11:38:29.381Z,4.20
2023-01-18T11:41:20.779Z,4.20
2023-01-18T11:44:19.155Z,4.30
2023-01-18T11:47:16.378Z,4.30
2023-01-18T11:50:22.133Z,4.40
2023-01-18T11:53:27.730Z,4.40
2023-01-18T11:56:25.108Z,4.30
2023-01-18T11:59:16.846Z,4.20
2023-01-18T12:02:39.739Z,4.40
2023-01-18T12:05:37.234Z,4.20
2023-01-18T12:08:41.782Z,4.30
2023-01-18T12:11:48.382Z,4.40
2023-01-18T12:14:54.469Z,4.20
2023-01-18T12:18:12.422Z,4.50
2023-01-18T12:21:09.524Z,4.20
2023-01-18T12:24:28.608Z,4.10
2023-01-18T12:27:29.705Z,4.10
2023-01-18T12:30:32.950Z,4.00
2023-01-18T12:33:43.400Z,4.10
2023-01-18T12:36:55.326Z,4.10
2023-01-18T12:39:56.862Z,4.20
2023-01-18T12:42:54.486Z,4.30
2023-01-18T12:45:47.047Z,4.40
2023-01-18T12:48:43.588Z,4.70
2023-01-18T12:51:37.737Z,4.40
2023-01-18T12:54:32.241Z,4.60
2023-01-18T12:57:23.577Z,4.70
2023-01-18T13:00:20.045Z,4.70
2023-01-18T13:03:14.235Z,4.90
2023-01-18T13:06:04.217Z,4.80
2023-01-18T13:08:56.643Z,4.70
2023-01-18T13:11:46.003Z,4.80
2023-01-18T13:14:44.030Z,4.90
2023-01-18T13:17:38.536Z,4.90
2023-01-18T13:20:39.215Z,5.00
2023-01-18T13:23:36.954Z,4.90
2023-01-18T13:26:29.725Z,5.00
2023-01-18T13:29:25.891Z,5.00
2023-01-18T13:32:31.991Z,5.10
2023-01-18T13:35:25.849Z,5.10
2023-01-18T13:38:19.578Z,5.10
2023-01-18T13:41:11.719Z,5.20
2023-01-18T13:44:04.102Z,5.20
2023-01-18T13:46:52.704Z,5.20
2023-01-18T13:49:48.229Z,5.20
2023-01-18T13:52:42.334Z,5.10
2023-01-18T13:55:32.007Z,5.10
2023-01-18T13:58:26.072Z,5.00
2023-01-18T14:01:23.208Z,5.00
2023-01-18T14:04:31.910Z,5.00
2023-01-18T14:07:24.042Z,5.00
2023-01-18T14:10:33.319Z,4.90
2023-01-18T14:14:04.740Z,5.00
2023-01-18T14:17:07.142Z,5.00
2023-01-18T14:20:07.012Z,4.90
2023-01-18T14:23:07.656Z,4.80
2023-01-18T14:26:01.156Z,4.80
2023-01-18T14:28:52.649Z,4.80
2023-01-18T14:31:46.780Z,4.70
2023-01-18T14:34:38.768Z,4.70
2023-01-18T14:37:29.758Z,4.60
2023-01-18T14:40:24.077Z,4.50
2023-01-18T14:43:16.905Z,4.60
2023-01-18T14:46:08.826Z,4.70
2023-01-18T14:48:59.605Z,4.80
2023-01-18T14:51:50.713Z,4.90
2023-01-18T14:54:39.382Z,4.90
2023-01-18T14:57:29.439Z,4.80
2023-01-18T15:00:19.609Z,4.60
2023-01-18T15:03:14.538Z,4.60
2023-01-18T15:06:10.372Z,4.50
2023-01-18T15:08:59.823Z,4.50
2023-01-18T15:11:49.154Z,4.60
2023-01-18T15:14:44.603Z,4.50
2023-01-18T15:17:33.815Z,4.60
2023-01-18T15:20:22.552Z,4.50
2023-01-18T15:23:13.148Z,4.50
2023-01-18T15:26:02.505Z,4.60
2023-01-18T15:28:51.178Z,4.50
2023-01-18T15:31:48.398Z,4.50
2023-01-18T15:34:38.994Z,4.50
2023-01-18T15:37:29.261Z,4.50
2023-01-18T15:40:27.258Z,4.40
2023-01-18T15:43:28.199Z,4.40
2023-01-18T15:46:18.829Z,4.50
2023-01-18T15:49:14.097Z,4.40
2023-01-18T15:52:03.058Z,4.40
2023-01-18T15:54:51.724Z,4.50
2023-01-18T15:57:40.671Z,4.60
2023-01-18T16:00:32.219Z,4.50
2023-01-18T16:03:23.074Z,4.40
2023-01-18T16:06:16.932Z,4.60
2023-01-18T16:09:12.485Z,4.50
2023-01-18T16:12:02.582Z,4.40
2023-01-18T16:14:54.349Z,4.50
2023-01-18T16:17:44.884Z,4.50
2023-01-18T16:20:35.870Z,4.60
2023-01-18T16:23:26.912Z,4.60
2023-01-18T16:26:16.693Z,4.50
2023-01-18T16:29:09.906Z,4.50
2023-01-18T16:32:30.465Z,4.30
2023-01-18T16:35:22.084Z,4.40
2023-01-18T16:38:14.785Z,4.40
2023-01-18T16:41:04.813Z,4.40
2023-01-18T16:43:53.428Z,4.30
2023-01-18T16:46:42.041Z,4.30
2023-01-18T16:49:30.789Z,4.30
2023-01-18T16:52:19.524Z,4.20
2023-01-18T16:55:09.686Z,4.30
2023-01-18T16:58:00.058Z,4.30
2023-01-18T17:00:54.222Z,4.40
2023-01-18T17:03:43.450Z,4.40
2023-01-18T17:06:33.360Z,4.30
2023-01-18T17:09:24.163Z,4.30
2023-01-18T17:12:13.009Z,4.30
2023-01-18T17:15:03.111Z,4.30
2023-01-18T17:17:51.784Z,4.30
2023-01-18T17:20:40.475Z,4.30
2023-01-18T17:23:29.165Z,4.10
2023-01-18T17:26:18.092Z,4.10
2023-01-18T17:29:08.389Z,4.20
2023-01-18T17:31:58.683Z,4.30
2023-01-18T17:34:47.285Z,4.20
2023-01-18T17:37:35.923Z,4.30
2023-01-18T17:40:38.159Z,4.30
2023-01-18T17:43:33.866Z,4.30
2023-01-18T17:46:23.237Z,4.30
2023-01-18T17:49:13.327Z,4.40
2023-01-18T17:52:01.928Z,4.40
2023-01-18T17:54:50.581Z,4.40
2023-01-18T17:57:39.251Z,4.20
2023-01-18T18:00:28.102Z,4.20
2023-01-18T18:03:22.755Z,4.20
2023-01-18T18:06:16.437Z,4.40
2023-01-18T18:09:11.456Z,4.50
2023-01-18T18:12:00.184Z,4.40
2023-01-18T18:14:51.639Z,4.40
2023-01-18T18:17:40.571Z,4.40
2023-01-18T18:20:29.251Z,4.40
2023-01-18T18:23:19.439Z,4.40
2023-01-18T18:26:08.533Z,4.50
2023-01-18T18:28:57.220Z,4.40
2023-01-18T18:31:45.963Z,4.40
2023-01-18T18:34:34.871Z,4.40
2023-01-18T18:37:23.563Z,4.40
2023-01-18T18:40:14.404Z,4.40
2023-01-18T18:43:03.434Z,4.40
2023-01-18T18:45:52.405Z,4.40
2023-01-18T18:48:41.287Z,4.50
2023-01-18T18:51:30.021Z,4.50
2023-01-18T18:54:18.861Z,4.30
2023-01-18T18:57:08.944Z,4.40
2023-01-18T19:00:01.365Z,4.40
2023-01-18T19:02:50.308Z,4.50
2023-01-18T19:05:39.579Z,4.40
2023-01-18T19:08:28.187Z,4.30
2023-01-18T19:11:17.647Z,4.30
2023-01-18T19:14:07.791Z,4.30
2023-01-18T19:16:56.668Z,4.20
2023-01-18T19:19:45.626Z,4.10
2023-01-18T19:22:34.258Z,4.20
2023-01-18T19:25:22.897Z,4.40
2023-01-18T19:28:11.588Z,4.30
2023-01-18T19:31:06.251Z,4.40
2023-01-18T19:33:56.395Z,4.40
2023-01-18T19:36:45.044Z,4.30
2023-01-18T19:39:34.988Z,4.20
2023-01-18T19:42:23.702Z,4.30
2023-01-18T19:45:19.715Z,4.40
2023-01-18T19:48:16.877Z,4.30
2023-01-18T19:51:16.418Z,4.20
2023-01-18T19:54:11.167Z,4.20
2023-01-18T19:56:59.862Z,4.30
2023-01-18T19:59:48.535Z,4.30
2023-01-18T20:02:39.563Z,4.40
2023-01-18T20:05:29.817Z,4.30
2023-01-18T20:08:21.236Z,4.30
2023-01-18T20:11:11.542Z,4.40
2023-01-18T20:14:00.360Z,4.40
2023-01-18T20:16:49.376Z,4.40
2023-01-18T20:19:37.994Z,4.40
2023-01-18T20:22:28.116Z,4.40
2023-01-18T20:25:16.853Z,4.50
2023-01-18T20:28:05.724Z,4.40
2023-01-18T20:30:54.753Z,4.30
2023-01-18T20:33:43.350Z,4.40
2023-01-18T20:36:34.976Z,4.40
2023-01-18T20:39:25.427Z,4.40
2023-01-18T20:42:15.523Z,4.50
2023-01-18T20:45:04.943Z,4.40
2023-01-18T20:47:53.684Z,4.40
2023-01-18T20:50:42.424Z,4.40
2023-01-18T20:53:32.566Z,4.60
2023-01-18T20:56:29.137Z,4.50
2023-01-18T20:59:19.775Z,4.50
2023-01-18T21:02:08.649Z,4.60
2023-01-18T21:04:58.586Z,4.60
2023-01-18T21:07:47.268Z,4.60
2023-01-18T21:10:42.767Z,4.50
2023-01-18T21:13:33.467Z,4.60
2023-01-18T21:16:23.570Z,4.60
2023-01-18T21:19:12.767Z,4.60
2023-01-18T21:22:01.583Z,4.40
2023-01-18T21:24:50.278Z,4.50
2023-01-18T21:27:43.281Z,4.50
2023-01-18T21:30:35.060Z,4.60
2023-01-18T21:33:24.247Z,4.70
2023-01-18T21:36:15.568Z,4.70
2023-01-18T21:39:04.552Z,4.70
2023-01-18T21:42:10.804Z,4.80
2023-01-18T21:45:16.870Z,4.80
2023-01-18T21:48:10.171Z,4.70
2023-01-18T21:51:18.784Z,4.70
2023-01-18T21:54:15.790Z,4.70
2023-01-18T21:57:06.128Z,4.80
2023-01-18T21:59:54.916Z,4.80
2023-01-18T22:02:43.645Z,4.80
2023-01-18T22:05:34.274Z,4.80
2023-01-18T22:08:23.222Z,4.80
2023-01-18T22:11:12.060Z,4.80
2023-01-18T22:14:03.484Z,4.80
2023-01-18T22:16:52.739Z,4.70
2023-01-18T22:19:44.100Z,4.70
2023-01-18T22:22:34.465Z,4.80
2023-01-18T22:25:23.262Z,4.70
2023-01-18T22:28:12.909Z,4.80
2023-01-18T22:31:06.596Z,4.70
2023-01-18T22:33:57.371Z,4.70
2023-01-18T22:36:46.162Z,4.70
2023-01-18T22:39:36.354Z,4.80
2023-01-18T22:42:25.184Z,4.70
2023-01-18T22:45:13.938Z,4.80
2023-01-18T22:48:05.739Z,4.80
2023-01-18T22:50:55.008Z,4.90
2023-01-18T22:53:44.847Z,4.80
2023-01-18T22:56:35.102Z,4.80
2023-01-18T22:59:23.762Z,4.80
2023-01-18T23:02:12.666Z,4.80
2023-01-18T23:05:01.337Z,4.80
2023-01-18T23:07:50.166Z,4.80
2023-01-18T23:10:38.790Z,4.70
2023-01-18T23:13:28.934Z,4.90
2023-01-18T23:16:34.979Z,4.80
2023-01-18T23:19:25.037Z,4.90
2023-01-18T23:22:13.766Z,5.00
2023-01-18T23:25:02.752Z,5.00
2023-01-18T23:27:51.492Z,4.90
2023-01-18T23:30:41.882Z,5.00
2023-01-18T23:33:30.967Z,4.90
2023-01-18T23:36:20.620Z,4.90
2023-01-18T23:39:29.572Z,4.90
2023-01-18T23:42:35.829Z,5.00
2023-01-18T23:45:41.895Z,4.90
2023-01-18T23:48:49.749Z,4.80
2023-01-18T23:51:55.851Z,4.90
2023-01-18T23:54:44.685Z,4.80
2023-01-18T23:57:33.866Z,4.80
